PWSweather.com
Personal Weather Stations
Station Observations

MakarauRodneyNZ

Lat: -36.52421, Lon: 174.47572

Elevation: 606

Station Type: Davis VP2

http://kaiparaweather.dynu.net/index.php

Latest ConditionsUpdated 10:10:01 PM GMT+12:12 Saturday, Aug 24, 2019
Currently Today's Max Today's Min Today's Average
Temperature 52.1°F11.2°C 56.9°F13.8°C 47.7°F8.7°C 51.9°F11.1°C
Dew Point 50.7°F10.4°C 55.8°F13.2°C 47.4°F8.6°C 51.2°F10.7°C
Winds 15.0 mph SW24.1 kmh SW 20.7 mph -33.3 kmh - - 9.4 mph 15.1 kmh
Wind Gusts 19.6 mph31.5 kmh 27.6 mph44.4 kmh - -
Humidity 95% 100% 92% 97%
Pressure 29.87 in1011.5 mb 29.87 in1011.5 mb 29.42 in996.3 mb -
Precipitation - 0.11 in2.8 mm - -
Hour Temp Dew Point Humidity Winds Wind Gusts Pressure Precip Precip Rate Daily Precip Total
10:10 PM 52.1°F11.2°C 50.7°F10.4°C 95% 15.0 mph SW24.1 kmh SW 19.6 mph31.5 kmh 29.87 in1011.5 mb - 0.00 in0.0 mm 0.11 in2.8 mm
10:00 PM 51.9°F11.1°C 51.4°F10.8°C 98% 13.8 mph SW22.2 kmh SW 17.3 mph27.8 kmh 29.86 in1011.2 mb - 0.00 in0.0 mm 0.11 in2.8 mm
09:50 PM 52.1°F11.2°C 51.6°F10.9°C 98% 11.5 mph WSW18.5 kmh WSW 13.8 mph22.2 kmh 29.86 in1011.2 mb - 0.00 in0.0 mm 0.11 in2.8 mm
09:40 PM 52.3°F11.3°C 50.9°F10.5°C 95% 11.5 mph WSW18.5 kmh WSW 18.4 mph29.6 kmh 29.86 in1011.2 mb - 0.00 in0.0 mm 0.11 in2.8 mm
09:30 PM 52.3°F11.3°C 50.9°F10.5°C 95% 11.5 mph WSW18.5 kmh WSW 13.8 mph22.2 kmh 29.86 in1011.2 mb - 0.00 in0.0 mm 0.11 in2.8 mm
09:20 PM 52.3°F11.3°C 51.2°F10.7°C 96% 9.2 mph WSW14.8 kmh WSW 12.7 mph20.4 kmh 29.85 in1010.8 mb - 0.00 in0.0 mm 0.11 in2.8 mm
09:10 PM 51.9°F11.1°C 50.8°F10.4°C 96% 12.7 mph WSW20.4 kmh WSW 19.6 mph31.5 kmh 29.85 in1010.8 mb - 0.00 in0.0 mm 0.11 in2.8 mm
09:00 PM 52.1°F11.2°C 51.0°F10.6°C 96% 9.2 mph WSW14.8 kmh WSW 11.5 mph18.5 kmh 29.85 in1010.8 mb - 0.00 in0.0 mm 0.11 in2.8 mm
08:50 PM 52.6°F11.4°C 51.5°F10.8°C 96% 8.1 mph WSW13.0 kmh WSW 13.8 mph22.2 kmh 29.85 in1010.8 mb - 0.00 in0.0 mm 0.11 in2.8 mm
08:40 PM 52.6°F11.4°C 51.5°F10.8°C 96% 13.8 mph WSW22.2 kmh WSW 16.1 mph25.9 kmh 29.84 in1010.5 mb - 0.00 in0.0 mm 0.11 in2.8 mm
08:30 PM 52.4°F11.3°C 51.9°F11.1°C 98% 11.5 mph WSW18.5 kmh WSW 12.7 mph20.4 kmh 29.84 in1010.5 mb - 0.00 in0.0 mm 0.11 in2.8 mm
08:20 PM 52.6°F11.4°C 52.3°F11.3°C 99% 9.2 mph WSW14.8 kmh WSW 13.8 mph22.2 kmh 29.84 in1010.5 mb - 0.00 in0.0 mm 0.11 in2.8 mm
08:10 PM 52.4°F11.3°C 51.8°F11.0°C 98% 10.4 mph WSW16.7 kmh WSW 12.7 mph20.4 kmh 29.83 in1010.2 mb - 0.00 in0.0 mm 0.11 in2.8 mm
08:00 PM 52.5°F11.4°C 52.2°F11.2°C 99% 9.2 mph WSW14.8 kmh WSW 11.5 mph18.5 kmh 29.83 in1010.2 mb - 0.00 in0.0 mm 0.11 in2.8 mm
07:50 PM 52.8°F11.6°C 52.2°F11.2°C 98% 16.1 mph WSW25.9 kmh WSW 21.9 mph35.2 kmh 29.82 in1009.8 mb - 0.00 in0.0 mm 0.11 in2.8 mm
07:40 PM 52.9°F11.6°C 52.4°F11.3°C 98% 10.4 mph WSW16.7 kmh WSW 15.0 mph24.1 kmh 29.82 in1009.8 mb - 0.00 in0.0 mm 0.11 in2.8 mm
07:30 PM 52.8°F11.6°C 52.3°F11.3°C 98% 12.7 mph WSW20.4 kmh WSW 19.6 mph31.5 kmh 29.82 in1009.8 mb - 0.00 in0.0 mm 0.11 in2.8 mm
07:20 PM 52.8°F11.6°C 52.3°F11.3°C 98% 16.1 mph WSW25.9 kmh WSW 26.5 mph42.6 kmh 29.81 in1009.5 mb - 0.00 in0.0 mm 0.11 in2.8 mm
07:10 PM 53.2°F11.8°C 52.9°F11.6°C 99% 15.0 mph WSW24.1 kmh WSW 17.3 mph27.8 kmh 29.81 in1009.5 mb - 0.00 in0.0 mm 0.11 in2.8 mm
07:00 PM 53.4°F11.9°C 52.8°F11.6°C 98% 11.5 mph WSW18.5 kmh WSW 12.7 mph20.4 kmh 29.81 in1009.5 mb - 0.00 in0.0 mm 0.11 in2.8 mm
06:50 PM 53.4°F11.9°C 52.8°F11.6°C 98% 11.5 mph WSW18.5 kmh WSW 12.7 mph20.4 kmh 29.80 in1009.1 mb - 0.00 in0.0 mm 0.11 in2.8 mm
06:40 PM 53.2°F11.8°C 52.7°F11.5°C 98% 12.7 mph SW20.4 kmh SW 18.4 mph29.6 kmh 29.80 in1009.1 mb - 0.00 in0.0 mm 0.11 in2.8 mm
06:30 PM 53.2°F11.8°C 52.7°F11.5°C 98% 10.4 mph WSW16.7 kmh WSW 11.5 mph18.5 kmh 29.79 in1008.8 mb - 0.00 in0.0 mm 0.11 in2.8 mm
06:20 PM 53.0°F11.7°C 52.8°F11.6°C 99% 10.4 mph WSW16.7 kmh WSW 15.0 mph24.1 kmh 29.79 in1008.8 mb - 0.00 in0.0 mm 0.11 in2.8 mm
06:10 PM 53.1°F11.7°C 52.8°F11.6°C 99% 12.7 mph WSW20.4 kmh WSW 15.0 mph24.1 kmh 29.78 in1008.5 mb - 0.00 in0.0 mm 0.11 in2.8 mm
06:00 PM 53.1°F11.7°C 52.9°F11.6°C 99% 9.2 mph WSW14.8 kmh WSW 11.5 mph18.5 kmh 29.78 in1008.5 mb - 0.00 in0.0 mm 0.11 in2.8 mm
05:50 PM 53.3°F11.8°C 53.0°F11.7°C 99% 10.4 mph WSW16.7 kmh WSW 16.1 mph25.9 kmh 29.77 in1008.1 mb - 0.00 in0.0 mm 0.11 in2.8 mm
05:40 PM 53.4°F11.9°C 52.8°F11.6°C 98% 11.5 mph WSW18.5 kmh WSW 15.0 mph24.1 kmh 29.77 in1008.1 mb - 0.00 in0.0 mm 0.11 in2.8 mm
05:30 PM 53.2°F11.8°C 52.9°F11.6°C 99% 12.7 mph WSW20.4 kmh WSW 15.0 mph24.1 kmh 29.77 in1008.1 mb - 0.00 in0.0 mm 0.11 in2.8 mm
05:20 PM 53.5°F11.9°C 53.2°F11.8°C 99% 15.0 mph SW24.1 kmh SW 21.9 mph35.2 kmh 29.76 in1007.8 mb - 0.02 in0.5 mm 0.11 in2.8 mm
05:10 PM 55.0°F12.8°C 54.1°F12.3°C 97% 12.7 mph WSW20.4 kmh WSW 19.6 mph31.5 kmh 29.75 in1007.5 mb - 0.00 in0.0 mm 0.09 in2.3 mm
05:00 PM 55.3°F12.9°C 54.2°F12.3°C 96% 18.4 mph WSW29.6 kmh WSW 24.2 mph38.9 kmh 29.75 in1007.5 mb - 0.00 in0.0 mm 0.09 in2.3 mm
04:50 PM 55.3°F12.9°C 54.7°F12.6°C 98% 10.4 mph WSW16.7 kmh WSW 13.8 mph22.2 kmh 29.75 in1007.5 mb - 0.00 in0.0 mm 0.09 in2.3 mm
04:40 PM 55.1°F12.8°C 53.7°F12.1°C 95% 12.7 mph SW20.4 kmh SW 16.1 mph25.9 kmh 29.74 in1007.1 mb - 0.00 in0.0 mm 0.09 in2.3 mm
04:30 PM 56.0°F13.3°C 54.6°F12.6°C 95% 13.8 mph WSW22.2 kmh WSW 20.7 mph33.3 kmh 29.74 in1007.1 mb - 0.00 in0.0 mm 0.09 in2.3 mm
04:20 PM 55.8°F13.2°C 54.7°F12.6°C 96% 11.5 mph WSW18.5 kmh WSW 13.8 mph22.2 kmh 29.73 in1006.8 mb - 0.00 in0.0 mm 0.09 in2.3 mm
04:10 PM 56.3°F13.5°C 54.8°F12.7°C 95% 10.4 mph WSW16.7 kmh WSW 15.0 mph24.1 kmh 29.73 in1006.8 mb - 0.00 in0.0 mm 0.09 in2.3 mm
04:00 PM 56.2°F13.4°C 55.1°F12.8°C 96% 12.7 mph WSW20.4 kmh WSW 20.7 mph33.3 kmh 29.72 in1006.4 mb - 0.00 in0.0 mm 0.09 in2.3 mm
03:50 PM 56.9°F13.8°C 55.8°F13.2°C 96% 12.7 mph WSW20.4 kmh WSW 13.8 mph22.2 kmh 29.72 in1006.4 mb - 0.00 in0.0 mm 0.09 in2.3 mm
03:40 PM 56.7°F13.7°C 55.0°F12.8°C 94% 15.0 mph SW24.1 kmh SW 19.6 mph31.5 kmh 29.72 in1006.4 mb - 0.00 in0.0 mm 0.09 in2.3 mm
03:30 PM 56.7°F13.7°C 55.0°F12.8°C 94% 16.1 mph SW25.9 kmh SW 26.5 mph42.6 kmh 29.72 in1006.4 mb - 0.00 in0.0 mm 0.09 in2.3 mm
03:20 PM 56.4°F13.6°C 55.0°F12.8°C 95% 19.6 mph SW31.5 kmh SW 25.3 mph40.7 kmh 29.72 in1006.4 mb - 0.00 in0.0 mm 0.09 in2.3 mm
03:10 PM 56.8°F13.8°C 55.0°F12.8°C 94% 13.8 mph SW22.2 kmh SW 23.0 mph37.0 kmh 29.72 in1006.4 mb - 0.00 in0.0 mm 0.09 in2.3 mm
03:00 PM 56.7°F13.7°C 54.4°F12.4°C 92% 19.6 mph SW31.5 kmh SW 24.2 mph38.9 kmh 29.71 in1006.1 mb - 0.00 in0.0 mm 0.09 in2.3 mm
02:50 PM 56.7°F13.7°C 54.9°F12.7°C 94% 13.8 mph WSW22.2 kmh WSW 16.1 mph25.9 kmh 29.71 in1006.1 mb - 0.00 in0.0 mm 0.09 in2.3 mm
02:40 PM 56.3°F13.5°C 54.9°F12.7°C 95% 13.8 mph WSW22.2 kmh WSW 18.4 mph29.6 kmh 29.70 in1005.8 mb - 0.00 in0.0 mm 0.09 in2.3 mm
02:30 PM 56.5°F13.6°C 55.4°F13.0°C 96% 15.0 mph WSW24.1 kmh WSW 23.0 mph37.0 kmh 29.70 in1005.8 mb - 0.00 in0.0 mm 0.09 in2.3 mm
02:20 PM 55.7°F13.2°C 54.6°F12.6°C 96% 15.0 mph WSW24.1 kmh WSW 21.9 mph35.2 kmh 29.70 in1005.8 mb - 0.00 in0.0 mm 0.09 in2.3 mm
02:10 PM 56.5°F13.6°C 55.3°F12.9°C 96% 13.8 mph SW22.2 kmh SW 24.2 mph38.9 kmh 29.70 in1005.8 mb - 0.00 in0.0 mm 0.09 in2.3 mm
02:00 PM 55.4°F13.0°C 54.6°F12.6°C 97% 15.0 mph WSW24.1 kmh WSW 20.7 mph33.3 kmh 29.70 in1005.8 mb - 0.00 in0.0 mm 0.09 in2.3 mm
01:50 PM 54.5°F12.5°C 54.2°F12.3°C 99% 11.5 mph WSW18.5 kmh WSW 18.4 mph29.6 kmh 29.70 in1005.8 mb - 0.00 in0.0 mm 0.09 in2.3 mm
01:40 PM 52.8°F11.6°C 52.5°F11.4°C 99% 10.4 mph SW16.7 kmh SW 11.5 mph18.5 kmh 29.70 in1005.8 mb - 0.00 in0.0 mm 0.09 in2.3 mm
01:30 PM 51.4°F10.8°C 51.4°F10.8°C 100% 13.8 mph SW22.2 kmh SW 15.0 mph24.1 kmh 29.70 in1005.8 mb - 0.00 in0.0 mm 0.09 in2.3 mm
01:20 PM 50.6°F10.3°C 50.6°F10.3°C 100% 12.7 mph SW20.4 kmh SW 13.8 mph22.2 kmh 29.70 in1005.8 mb - 0.02 in0.5 mm 0.09 in2.3 mm
01:10 PM 52.5°F11.4°C 52.3°F11.3°C 99% 11.5 mph SW18.5 kmh SW 20.7 mph33.3 kmh 29.70 in1005.8 mb - 0.00 in0.0 mm 0.08 in2.0 mm
01:00 PM 51.8°F11.0°C 51.6°F10.9°C 99% 12.7 mph WSW20.4 kmh WSW 17.3 mph27.8 kmh 29.70 in1005.8 mb - 0.00 in0.0 mm 0.08 in2.0 mm
12:50 PM 51.3°F10.7°C 51.0°F10.6°C 99% 13.8 mph SW22.2 kmh SW 13.8 mph22.2 kmh 29.69 in1005.4 mb - 0.02 in0.5 mm 0.08 in2.0 mm
12:40 PM 54.2°F12.3°C 52.2°F11.2°C 93% 17.3 mph WSW27.8 kmh WSW 24.2 mph38.9 kmh 29.69 in1005.4 mb - 0.00 in0.0 mm 0.06 in1.5 mm
12:30 PM 56.3°F13.5°C 54.9°F12.7°C 95% 3.5 mph WSW5.6 kmh WSW 3.5 mph5.6 kmh 29.70 in1005.8 mb - 0.00 in0.0 mm 0.06 in1.5 mm
12:20 PM 55.5°F13.1°C 54.4°F12.4°C 96% 1.2 mph WSW1.9 kmh WSW 11.5 mph18.5 kmh 29.70 in1005.8 mb - 0.00 in0.0 mm 0.06 in1.5 mm
12:10 PM 53.8°F12.1°C 52.1°F11.2°C 94% 9.2 mph WSW14.8 kmh WSW 11.5 mph18.5 kmh 29.71 in1006.1 mb - 0.00 in0.0 mm 0.06 in1.5 mm
12:00 PM 54.0°F12.2°C 53.1°F11.7°C 97% 6.9 mph WSW11.1 kmh WSW 11.5 mph18.5 kmh 29.71 in1006.1 mb - 0.00 in0.0 mm 0.06 in1.5 mm
11:50 AM 54.3°F12.4°C 53.2°F11.8°C 96% 3.5 mph WSW5.6 kmh WSW 4.6 mph7.4 kmh 29.71 in1006.1 mb - 0.00 in0.0 mm 0.06 in1.5 mm
11:40 AM 52.6°F11.4°C 51.5°F10.8°C 96% 10.4 mph WSW16.7 kmh WSW 17.3 mph27.8 kmh 29.71 in1006.1 mb - 0.00 in0.0 mm 0.06 in1.5 mm
11:30 AM 51.8°F11.0°C 50.7°F10.4°C 96% 9.2 mph WSW14.8 kmh WSW 11.5 mph18.5 kmh 29.70 in1005.8 mb - 0.00 in0.0 mm 0.06 in1.5 mm
11:20 AM 50.8°F10.4°C 50.5°F10.3°C 99% 12.7 mph SW20.4 kmh SW 17.3 mph27.8 kmh 29.70 in1005.8 mb - 0.00 in0.0 mm 0.06 in1.5 mm
11:10 AM 50.7°F10.4°C 50.2°F10.1°C 98% 12.7 mph WSW20.4 kmh WSW 18.4 mph29.6 kmh 29.69 in1005.4 mb - 0.00 in0.0 mm 0.06 in1.5 mm
11:00 AM 54.9°F12.7°C 53.8°F12.1°C 96% 17.3 mph WSW27.8 kmh WSW 19.6 mph31.5 kmh 29.68 in1005.1 mb - 0.00 in0.0 mm 0.06 in1.5 mm
10:50 AM 55.2°F12.9°C 53.7°F12.1°C 95% 17.3 mph WSW27.8 kmh WSW 25.3 mph40.7 kmh 29.68 in1005.1 mb - 0.00 in0.0 mm 0.06 in1.5 mm
10:40 AM 54.9°F12.7°C 53.8°F12.1°C 96% 11.5 mph WSW18.5 kmh WSW 16.1 mph25.9 kmh 29.67 in1004.7 mb - 0.00 in0.0 mm 0.06 in1.5 mm
10:30 AM 54.6°F12.6°C 52.9°F11.6°C 94% 20.7 mph SW33.3 kmh SW 27.6 mph44.4 kmh 29.67 in1004.7 mb - 0.00 in0.0 mm 0.06 in1.5 mm
10:20 AM 53.9°F12.2°C 52.3°F11.3°C 94% 19.6 mph WSW31.5 kmh WSW 23.0 mph37.0 kmh 29.66 in1004.4 mb - 0.00 in0.0 mm 0.06 in1.5 mm
10:10 AM 54.6°F12.6°C 52.9°F11.6°C 94% 13.8 mph WSW22.2 kmh WSW 19.6 mph31.5 kmh 29.66 in1004.4 mb - 0.00 in0.0 mm 0.06 in1.5 mm
10:00 AM 54.6°F12.6°C 52.9°F11.6°C 94% 17.3 mph SW27.8 kmh SW 19.6 mph31.5 kmh 29.65 in1004.1 mb - 0.00 in0.0 mm 0.06 in1.5 mm
09:50 AM 53.8°F12.1°C 51.8°F11.0°C 93% 19.6 mph SW31.5 kmh SW 23.0 mph37.0 kmh 29.65 in1004.1 mb - 0.00 in0.0 mm 0.06 in1.5 mm
09:40 AM 53.6°F12.0°C 51.9°F11.1°C 94% 15.0 mph WSW24.1 kmh WSW 20.7 mph33.3 kmh 29.64 in1003.7 mb - 0.00 in0.0 mm 0.06 in1.5 mm
09:30 AM 53.4°F11.9°C 52.0°F11.1°C 95% 15.0 mph SW24.1 kmh SW 23.0 mph37.0 kmh 29.64 in1003.7 mb - 0.00 in0.0 mm 0.06 in1.5 mm
09:20 AM 53.1°F11.7°C 51.7°F10.9°C 95% 12.7 mph WSW20.4 kmh WSW 19.6 mph31.5 kmh 29.63 in1003.4 mb - 0.00 in0.0 mm 0.06 in1.5 mm
09:10 AM 52.9°F11.6°C 51.8°F11.0°C 96% 13.8 mph WSW22.2 kmh WSW 19.6 mph31.5 kmh 29.63 in1003.4 mb - 0.00 in0.0 mm 0.06 in1.5 mm
09:00 AM 52.6°F11.4°C 51.2°F10.7°C 95% 16.1 mph SW25.9 kmh SW 21.9 mph35.2 kmh 29.62 in1003.0 mb - 0.00 in0.0 mm 0.06 in1.5 mm
08:50 AM 52.1°F11.2°C 51.0°F10.6°C 96% 17.3 mph WSW27.8 kmh WSW 24.2 mph38.9 kmh 29.62 in1003.0 mb - 0.00 in0.0 mm 0.06 in1.5 mm
08:40 AM 51.4°F10.8°C 50.6°F10.3°C 97% 11.5 mph WSW18.5 kmh WSW 19.6 mph31.5 kmh 29.62 in1003.0 mb - 0.00 in0.0 mm 0.06 in1.5 mm
08:30 AM 50.8°F10.4°C 50.0°F10.0°C 97% 11.5 mph WSW18.5 kmh WSW 13.8 mph22.2 kmh 29.61 in1002.7 mb - 0.00 in0.0 mm 0.06 in1.5 mm
08:20 AM 50.5°F10.3°C 49.7°F9.8°C 97% 11.5 mph WSW18.5 kmh WSW 12.7 mph20.4 kmh 29.60 in1002.4 mb - 0.00 in0.0 mm 0.06 in1.5 mm
08:10 AM 49.8°F9.9°C 49.3°F9.6°C 98% 11.5 mph WSW18.5 kmh WSW 15.0 mph24.1 kmh 29.60 in1002.4 mb - 0.00 in0.0 mm 0.06 in1.5 mm
08:00 AM 49.5°F9.7°C 49.2°F9.6°C 99% 10.4 mph WSW16.7 kmh WSW 13.8 mph22.2 kmh 29.59 in1002.0 mb - 0.00 in0.0 mm 0.06 in1.5 mm
07:50 AM 48.9°F9.4°C 48.6°F9.2°C 99% 9.2 mph SW14.8 kmh SW 11.5 mph18.5 kmh 29.58 in1001.7 mb - 0.00 in0.0 mm 0.06 in1.5 mm
07:40 AM 48.2°F9.0°C 48.0°F8.9°C 99% 6.9 mph WSW11.1 kmh WSW 9.2 mph14.8 kmh 29.58 in1001.7 mb - 0.00 in0.0 mm 0.06 in1.5 mm
07:30 AM 48.1°F8.9°C 47.8°F8.8°C 99% 4.6 mph WSW7.4 kmh WSW 5.8 mph9.3 kmh 29.57 in1001.4 mb - 0.00 in0.0 mm 0.06 in1.5 mm
07:20 AM 48.6°F9.2°C 48.4°F9.1°C 99% 10.4 mph SW16.7 kmh SW 13.8 mph22.2 kmh 29.57 in1001.4 mb - 0.01 in0.3 mm 0.06 in1.5 mm
07:10 AM 50.5°F10.3°C 49.7°F9.8°C 97% 8.1 mph SW13.0 kmh SW 11.5 mph18.5 kmh 29.57 in1001.4 mb - 0.04 in1.0 mm 0.06 in1.5 mm
07:00 AM 50.8°F10.4°C 50.0°F10.0°C 97% 10.4 mph SW16.7 kmh SW 11.5 mph18.5 kmh 29.54 in1000.3 mb - 0.00 in0.0 mm 0.02 in0.5 mm
06:50 AM 50.5°F10.3°C 49.7°F9.8°C 97% 11.5 mph WSW18.5 kmh WSW 17.3 mph27.8 kmh 29.54 in1000.3 mb - 0.00 in0.0 mm 0.02 in0.5 mm
06:40 AM 49.9°F9.9°C 49.3°F9.6°C 98% 1.2 mph SW1.9 kmh SW 11.5 mph18.5 kmh 29.54 in1000.3 mb - 0.00 in0.0 mm 0.02 in0.5 mm
06:30 AM 49.7°F9.8°C 49.4°F9.7°C 99% Calm Calm -- 29.53 in1000.0 mb - 0.00 in0.0 mm 0.02 in0.5 mm
06:20 AM 49.5°F9.7°C 49.3°F9.6°C 99% 5.8 mph SW9.3 kmh SW 10.4 mph16.7 kmh 29.52 in999.7 mb - 0.00 in0.0 mm 0.02 in0.5 mm
06:10 AM 49.4°F9.7°C 49.2°F9.6°C 99% 8.1 mph SW13.0 kmh SW 11.5 mph18.5 kmh 29.52 in999.7 mb - 0.00 in0.0 mm 0.02 in0.5 mm
06:00 AM 49.3°F9.6°C 48.7°F9.3°C 98% 4.6 mph SW7.4 kmh SW 5.8 mph9.3 kmh 29.51 in999.3 mb - 0.00 in0.0 mm 0.02 in0.5 mm
05:50 AM 49.5°F9.7°C 48.7°F9.3°C 97% 5.8 mph WSW9.3 kmh WSW 10.4 mph16.7 kmh 29.51 in999.3 mb - 0.00 in0.0 mm 0.02 in0.5 mm
05:40 AM 49.9°F9.9°C 49.4°F9.7°C 98% 9.2 mph SW14.8 kmh SW 11.5 mph18.5 kmh 29.50 in999.0 mb - 0.00 in0.0 mm 0.02 in0.5 mm
05:30 AM 49.8°F9.9°C 49.3°F9.6°C 98% 2.3 mph SW3.7 kmh SW 10.4 mph16.7 kmh 29.50 in999.0 mb - 0.00 in0.0 mm 0.02 in0.5 mm
05:20 AM 50.0°F10.0°C 49.4°F9.7°C 98% 10.4 mph SW16.7 kmh SW 11.5 mph18.5 kmh 29.49 in998.6 mb - 0.00 in0.0 mm 0.02 in0.5 mm
05:10 AM 49.4°F9.7°C 49.1°F9.5°C 99% 2.3 mph SW3.7 kmh SW 8.1 mph13.0 kmh 29.48 in998.3 mb - 0.00 in0.0 mm 0.02 in0.5 mm
05:00 AM 49.3°F9.6°C 49.0°F9.4°C 99% Calm Calm -- 29.48 in998.3 mb - 0.00 in0.0 mm 0.02 in0.5 mm
04:50 AM 49.2°F9.6°C 48.9°F9.4°C 99% 3.5 mph WSW5.6 kmh WSW 4.6 mph7.4 kmh 29.48 in998.3 mb - 0.00 in0.0 mm 0.02 in0.5 mm
04:40 AM 48.8°F9.3°C 48.6°F9.2°C 99% 4.6 mph SW7.4 kmh SW 5.8 mph9.3 kmh 29.47 in998.0 mb - 0.00 in0.0 mm 0.02 in0.5 mm
04:30 AM 48.7°F9.3°C 48.4°F9.1°C 99% 2.3 mph WSW3.7 kmh WSW 3.5 mph5.6 kmh 29.47 in998.0 mb - 0.00 in0.0 mm 0.02 in0.5 mm
04:20 AM 48.5°F9.2°C 48.3°F9.1°C 99% 2.3 mph WSW3.7 kmh WSW 5.8 mph9.3 kmh 29.47 in998.0 mb - 0.00 in0.0 mm 0.02 in0.5 mm
04:10 AM 48.5°F9.2°C 48.5°F9.2°C 100% 3.5 mph WSW5.6 kmh WSW 4.6 mph7.4 kmh 29.46 in997.6 mb - 0.00 in0.0 mm 0.02 in0.5 mm
04:00 AM 48.5°F9.2°C 48.5°F9.2°C 100% Calm Calm -- 29.46 in997.6 mb - 0.00 in0.0 mm 0.02 in0.5 mm
03:50 AM 48.7°F9.3°C 48.8°F9.3°C 100% Calm Calm -- 29.45 in997.3 mb - 0.00 in0.0 mm 0.02 in0.5 mm
03:40 AM 48.8°F9.3°C 48.8°F9.3°C 100% Calm Calm -- 29.45 in997.3 mb - 0.00 in0.0 mm 0.02 in0.5 mm
03:30 AM 49.0°F9.4°C 49.0°F9.4°C 100% Calm Calm 5.8 mph9.3 kmh 29.45 in997.3 mb - 0.00 in0.0 mm 0.02 in0.5 mm
03:20 AM 49.2°F9.6°C 49.2°F9.6°C 100% Calm Calm -- 29.45 in997.3 mb - 0.00 in0.0 mm 0.02 in0.5 mm
03:10 AM 48.9°F9.4°C 48.9°F9.4°C 100% 1.2 mph SW1.9 kmh SW 9.2 mph14.8 kmh 29.45 in997.3 mb - 0.00 in0.0 mm 0.02 in0.5 mm
03:00 AM 48.2°F9.0°C 48.0°F8.9°C 99% Calm Calm -- 29.44 in997.0 mb - 0.00 in0.0 mm 0.02 in0.5 mm
02:50 AM 48.2°F9.0°C 47.7°F8.7°C 98% 11.5 mph SW18.5 kmh SW 11.5 mph18.5 kmh 29.44 in997.0 mb - 0.02 in0.5 mm 0.02 in0.5 mm
02:40 AM 48.3°F9.1°C 48.3°F9.1°C 100% Calm Calm 5.8 mph9.3 kmh 29.44 in997.0 mb - 0.00 in0.0 mm 0.00 in0.0 mm
02:30 AM 48.0°F8.9°C 47.7°F8.7°C 99% Calm Calm -- 29.44 in997.0 mb - 0.00 in0.0 mm 0.00 in0.0 mm
02:20 AM 47.7°F8.7°C 47.4°F8.6°C 99% 3.5 mph NNW5.6 kmh NNW 4.6 mph7.4 kmh 29.44 in997.0 mb - 0.00 in0.0 mm 0.00 in0.0 mm
02:10 AM 47.8°F8.8°C 47.6°F8.7°C 99% Calm Calm -- 29.43 in996.6 mb - 0.00 in0.0 mm 0.00 in0.0 mm
02:00 AM 48.9°F9.4°C 48.6°F9.2°C 99% 3.5 mph WSW5.6 kmh WSW 5.8 mph9.3 kmh 29.44 in997.0 mb - 0.00 in0.0 mm 0.00 in0.0 mm
01:50 AM 48.7°F9.3°C 48.7°F9.3°C 100% 3.5 mph WSW5.6 kmh WSW 4.6 mph7.4 kmh 29.43 in996.6 mb - 0.00 in0.0 mm 0.00 in0.0 mm
01:40 AM 48.8°F9.3°C 48.8°F9.3°C 100% 2.3 mph WSW3.7 kmh WSW 3.5 mph5.6 kmh 29.43 in996.6 mb - 0.00 in0.0 mm 0.00 in0.0 mm
01:30 AM 48.8°F9.3°C 48.8°F9.3°C 100% 3.5 mph SW5.6 kmh SW 3.5 mph5.6 kmh 29.43 in996.6 mb - 0.00 in0.0 mm 0.00 in0.0 mm
01:20 AM 48.5°F9.2°C 48.2°F9.0°C 99% Calm Calm -- 29.43 in996.6 mb - 0.00 in0.0 mm 0.00 in0.0 mm
01:10 AM 48.6°F9.2°C 48.3°F9.1°C 99% Calm Calm -- 29.43 in996.6 mb - 0.00 in0.0 mm 0.00 in0.0 mm
01:00 AM 48.8°F9.3°C 48.5°F9.2°C 99% Calm Calm -- 29.43 in996.6 mb - 0.00 in0.0 mm 0.00 in0.0 mm
12:50 AM 48.7°F9.3°C 48.4°F9.1°C 99% Calm Calm -- 29.43 in996.6 mb - 0.00 in0.0 mm 0.00 in0.0 mm
12:40 AM 48.7°F9.3°C 48.4°F9.1°C 99% Calm Calm -- 29.43 in996.6 mb - 0.00 in0.0 mm 0.00 in0.0 mm
12:30 AM 48.9°F9.4°C 48.6°F9.2°C 99% Calm Calm -- 29.42 in996.3 mb - 0.00 in0.0 mm 0.00 in0.0 mm
12:20 AM 49.0°F9.4°C 48.8°F9.3°C 99% 3.5 mph WSW5.6 kmh WSW 4.6 mph7.4 kmh 29.42 in996.3 mb - 0.00 in0.0 mm 0.00 in0.0 mm
12:10 AM 48.8°F9.3°C 48.6°F9.2°C 99% 4.6 mph WSW7.4 kmh WSW 5.8 mph9.3 kmh 29.42 in996.3 mb - 0.00 in0.0 mm 0.00 in0.0 mm
12:00 AM 48.7°F9.3°C 48.4°F9.1°C 99% 3.5 mph WSW5.6 kmh WSW 8.1 mph13.0 kmh 29.42 in996.3 mb - 0.00 in0.0 mm 0.00 in0.0 mm